sensor_id;sensor_type;location;lat;lon;timestamp;P1;durP1;ratioP1;P2;durP2;ratioP2
63581;SDS011;49727;51.078;17.066;2023-03-13T00:14:18;4.03;;;2.25;;
63581;SDS011;49727;51.078;17.066;2023-03-13T00:29:19;3.60;;;2.20;;
63581;SDS011;49727;51.078;17.066;2023-03-13T00:44:19;4.03;;;2.10;;
63581;SDS011;49727;51.078;17.066;2023-03-13T00:59:19;3.45;;;2.60;;
63581;SDS011;49727;51.078;17.066;2023-03-13T01:14:20;2.95;;;2.22;;
63581;SDS011;49727;51.078;17.066;2023-03-13T01:29:20;3.42;;;2.30;;
63581;SDS011;49727;51.078;17.066;2023-03-13T01:44:23;7.95;;;3.13;;
63581;SDS011;49727;51.078;17.066;2023-03-13T01:59:29;5.20;;;3.75;;
63581;SDS011;49727;51.078;17.066;2023-03-13T02:14:33;5.57;;;3.17;;
63581;SDS011;49727;51.078;17.066;2023-03-13T02:29:36;8.23;;;3.67;;
63581;SDS011;49727;51.078;17.066;2023-03-13T02:44:39;6.68;;;4.38;;
63581;SDS011;49727;51.078;17.066;2023-03-13T03:14:41;8.75;;;4.30;;
63581;SDS011;49727;51.078;17.066;2023-03-13T03:29:41;8.50;;;5.22;;
63581;SDS011;49727;51.078;17.066;2023-03-13T03:44:42;11.73;;;6.05;;
63581;SDS011;49727;51.078;17.066;2023-03-13T03:59:42;10.50;;;6.05;;
63581;SDS011;49727;51.078;17.066;2023-03-13T04:14:42;9.10;;;5.50;;
63581;SDS011;49727;51.078;17.066;2023-03-13T04:29:43;13.25;;;6.72;;
63581;SDS011;49727;51.078;17.066;2023-03-13T04:44:44;13.73;;;7.07;;
63581;SDS011;49727;51.078;17.066;2023-03-13T04:59:45;11.95;;;7.13;;
63581;SDS011;49727;51.078;17.066;2023-03-13T05:14:45;13.00;;;7.30;;
63581;SDS011;49727;51.078;17.066;2023-03-13T05:29:46;11.07;;;7.43;;
63581;SDS011;49727;51.078;17.066;2023-03-13T05:44:46;10.27;;;6.35;;
63581;SDS011;49727;51.078;17.066;2023-03-13T05:59:46;9.95;;;6.10;;
63581;SDS011;49727;51.078;17.066;2023-03-13T06:14:47;12.25;;;6.88;;
63581;SDS011;49727;51.078;17.066;2023-03-13T06:29:47;10.13;;;5.60;;
63581;SDS011;49727;51.078;17.066;2023-03-13T06:44:47;14.05;;;6.60;;
63581;SDS011;49727;51.078;17.066;2023-03-13T06:59:48;9.75;;;3.85;;
63581;SDS011;49727;51.078;17.066;2023-03-13T07:14:48;10.50;;;5.75;;
63581;SDS011;49727;51.078;17.066;2023-03-13T07:29:49;8.80;;;3.90;;
63581;SDS011;49727;51.078;17.066;2023-03-13T07:44:49;8.35;;;4.22;;
63581;SDS011;49727;51.078;17.066;2023-03-13T07:59:49;14.02;;;3.03;;
63581;SDS011;49727;51.078;17.066;2023-03-13T08:14:50;6.57;;;3.00;;
63581;SDS011;49727;51.078;17.066;2023-03-13T08:29:50;8.75;;;3.30;;
63581;SDS011;49727;51.078;17.066;2023-03-13T08:44:50;8.38;;;2.90;;
63581;SDS011;49727;51.078;17.066;2023-03-13T08:59:51;8.23;;;2.85;;
63581;SDS011;49727;51.078;17.066;2023-03-13T09:14:51;6.97;;;1.45;;
63581;SDS011;49727;51.078;17.066;2023-03-13T09:29:52;7.30;;;1.98;;
63581;SDS011;49727;51.078;17.066;2023-03-13T09:45:03;4.57;;;1.83;;
63581;SDS011;49727;51.078;17.066;2023-03-13T10:00:10;4.00;;;1.70;;
63581;SDS011;49727;51.078;17.066;2023-03-13T10:30:29;5.63;;;1.77;;
63581;SDS011;49727;51.078;17.066;2023-03-13T10:45:30;4.63;;;1.97;;
63581;SDS011;49727;51.078;17.066;2023-03-13T11:00:37;2.77;;;1.20;;
63581;SDS011;49727;51.078;17.066;2023-03-13T11:15:50;6.07;;;1.80;;
63581;SDS011;49727;51.078;17.066;2023-03-13T11:46:17;8.30;;;2.47;;
63581;SDS011;49727;51.078;17.066;2023-03-13T12:01:45;9.43;;;2.50;;
63581;SDS011;49727;51.078;17.066;2023-03-13T12:16:56;10.77;;;3.17;;
63581;SDS011;49727;51.078;17.066;2023-03-13T12:32:03;3.47;;;1.50;;
63581;SDS011;49727;51.078;17.066;2023-03-13T12:47:16;5.53;;;1.60;;
63581;SDS011;49727;51.078;17.066;2023-03-13T13:02:24;5.67;;;2.47;;
63581;SDS011;49727;51.078;17.066;2023-03-13T13:17:42;3.43;;;1.73;;
63581;SDS011;49727;51.078;17.066;2023-03-13T13:32:52;5.03;;;1.87;;
63581;SDS011;49727;51.078;17.066;2023-03-13T14:03:38;6.43;;;2.30;;
63581;SDS011;49727;51.078;17.066;2023-03-13T14:18:42;4.50;;;1.87;;
63581;SDS011;49727;51.078;17.066;2023-03-13T14:33:42;2.40;;;1.73;;
63581;SDS011;49727;51.078;17.066;2023-03-13T14:48:43;4.82;;;1.92;;
63581;SDS011;49727;51.078;17.066;2023-03-13T15:03:43;7.43;;;2.50;;
63581;SDS011;49727;51.078;17.066;2023-03-13T15:18:45;4.13;;;2.33;;
63581;SDS011;49727;51.078;17.066;2023-03-13T15:33:46;2.60;;;1.50;;
63581;SDS011;49727;51.078;17.066;2023-03-13T15:48:47;4.10;;;1.80;;
63581;SDS011;49727;51.078;17.066;2023-03-13T16:03:50;7.50;;;2.57;;
63581;SDS011;49727;51.078;17.066;2023-03-13T16:18:51;11.75;;;6.03;;
63581;SDS011;49727;51.078;17.066;2023-03-13T16:33:52;5.23;;;3.57;;
63581;SDS011;49727;51.078;17.066;2023-03-13T16:48:53;4.33;;;2.17;;
63581;SDS011;49727;51.078;17.066;2023-03-13T17:03:56;7.40;;;2.70;;
63581;SDS011;49727;51.078;17.066;2023-03-13T17:18:58;4.83;;;2.27;;
63581;SDS011;49727;51.078;17.066;2023-03-13T17:34:00;4.10;;;2.30;;
63581;SDS011;49727;51.078;17.066;2023-03-13T17:49:02;4.10;;;2.30;;
63581;SDS011;49727;51.078;17.066;2023-03-13T18:04:03;15.40;;;6.80;;
63581;SDS011;49727;51.078;17.066;2023-03-13T18:19:04;10.35;;;5.10;;
63581;SDS011;49727;51.078;17.066;2023-03-13T18:34:06;3.07;;;1.80;;
63581;SDS011;49727;51.078;17.066;2023-03-13T18:49:13;6.00;;;2.15;;
63581;SDS011;49727;51.078;17.066;2023-03-13T19:04:16;6.87;;;2.13;;
63581;SDS011;49727;51.078;17.066;2023-03-13T19:19:18;5.03;;;2.70;;
63581;SDS011;49727;51.078;17.066;2023-03-13T19:34:20;5.20;;;3.20;;
63581;SDS011;49727;51.078;17.066;2023-03-13T19:49:21;15.38;;;3.15;;
63581;SDS011;49727;51.078;17.066;2023-03-13T20:04:22;7.68;;;3.72;;
63581;SDS011;49727;51.078;17.066;2023-03-13T20:19:24;3.30;;;2.03;;
63581;SDS011;49727;51.078;17.066;2023-03-13T20:34:28;5.63;;;2.73;;
63581;SDS011;49727;51.078;17.066;2023-03-13T20:49:28;6.68;;;3.25;;
63581;SDS011;49727;51.078;17.066;2023-03-13T21:04:29;5.80;;;3.33;;
63581;SDS011;49727;51.078;17.066;2023-03-13T21:19:29;5.95;;;2.50;;
63581;SDS011;49727;51.078;17.066;2023-03-13T21:34:30;5.65;;;2.60;;
63581;SDS011;49727;51.078;17.066;2023-03-13T21:49:30;5.85;;;2.30;;
63581;SDS011;49727;51.078;17.066;2023-03-13T22:04:31;12.98;;;3.45;;
63581;SDS011;49727;51.078;17.066;2023-03-13T22:19:31;3.30;;;2.53;;
63581;SDS011;49727;51.078;17.066;2023-03-13T22:34:33;7.37;;;2.93;;
63581;SDS011;49727;51.078;17.066;2023-03-13T22:49:33;9.77;;;4.05;;
63581;SDS011;49727;51.078;17.066;2023-03-13T23:04:33;7.20;;;4.75;;
63581;SDS011;49727;51.078;17.066;2023-03-13T23:19:34;9.38;;;3.40;;
63581;SDS011;49727;51.078;17.066;2023-03-13T23:34:34;6.43;;;3.47;;
63581;SDS011;49727;51.078;17.066;2023-03-13T23:49:35;7.43;;;3.30;;
